createdAt,value
2023-05-23T00:01:55.446Z,18.03
2023-05-23T00:04:27.322Z,17.94
2023-05-23T00:06:54.624Z,17.95
2023-05-23T00:09:21.924Z,17.60
2023-05-23T00:11:48.986Z,17.95
2023-05-23T00:14:16.316Z,17.88
2023-05-23T00:16:45.183Z,17.80
2023-05-23T00:19:15.359Z,17.98
2023-05-23T00:21:44.269Z,18.10
2023-05-23T00:24:11.443Z,17.73
2023-05-23T00:26:39.017Z,18.01
2023-05-23T00:29:06.605Z,18.23
2023-05-23T00:31:33.754Z,18.32
2023-05-23T00:34:00.946Z,18.33
2023-05-23T00:36:28.114Z,18.37
2023-05-23T00:38:55.849Z,18.23
2023-05-23T00:41:23.124Z,17.86
2023-05-23T00:43:50.381Z,17.97
2023-05-23T00:46:17.643Z,17.83
2023-05-23T00:48:45.200Z,18.04
2023-05-23T00:51:12.280Z,17.76
2023-05-23T00:53:39.465Z,18.16
2023-05-23T00:56:07.049Z,18.17
2023-05-23T00:58:35.237Z,17.81
2023-05-23T01:01:02.871Z,18.01
2023-05-23T01:03:30.518Z,18.08
2023-05-23T01:05:57.950Z,18.16
2023-05-23T01:08:25.182Z,17.77
2023-05-23T01:11:11.224Z,18.19
2023-05-23T01:13:47.825Z,18.10
2023-05-23T01:16:29.222Z,18.06
2023-05-23T01:19:17.736Z,18.06
2023-05-23T01:21:53.197Z,18.10
2023-05-23T01:24:54.861Z,17.90
2023-05-23T01:27:54.423Z,17.41
2023-05-23T01:30:23.471Z,17.38
2023-05-23T01:32:53.781Z,17.33
2023-05-23T01:35:26.328Z,17.24
2023-05-23T01:37:58.059Z,17.39
2023-05-23T01:40:26.159Z,17.57
2023-05-23T01:42:57.481Z,17.11
2023-05-23T01:45:26.940Z,17.25
2023-05-23T01:47:55.203Z,17.53
2023-05-23T01:50:23.828Z,17.60
2023-05-23T01:52:51.327Z,17.57
2023-05-23T01:55:22.861Z,17.29
2023-05-23T01:58:00.569Z,17.39
2023-05-23T02:00:27.977Z,17.66
2023-05-23T02:02:55.376Z,17.53
2023-05-23T02:05:22.754Z,17.38
2023-05-23T02:07:49.730Z,17.16
2023-05-23T02:10:18.073Z,16.90
2023-05-23T02:12:45.428Z,16.91
2023-05-23T02:15:12.527Z,16.93
2023-05-23T02:17:39.701Z,16.89
2023-05-23T02:20:07.799Z,16.63
2023-05-23T02:22:36.179Z,16.88
2023-05-23T02:25:03.258Z,16.61
2023-05-23T02:27:30.421Z,16.71
2023-05-23T02:29:57.612Z,16.86
2023-05-23T02:32:24.942Z,16.59
2023-05-23T02:34:52.937Z,16.93
2023-05-23T02:37:21.234Z,16.83
2023-05-23T02:39:48.601Z,16.90
2023-05-23T02:42:15.692Z,16.99
2023-05-23T02:44:42.916Z,17.02
2023-05-23T02:47:10.745Z,16.57
2023-05-23T02:49:37.899Z,16.63
2023-05-23T02:52:06.898Z,16.82
2023-05-23T02:54:34.037Z,16.75
2023-05-23T02:57:01.552Z,16.86
2023-05-23T02:59:29.474Z,16.25
2023-05-23T03:01:56.730Z,16.60
2023-05-23T03:04:24.172Z,16.84
2023-05-23T03:06:54.379Z,16.65
2023-05-23T03:09:21.898Z,16.84
2023-05-23T03:11:49.235Z,15.75
2023-05-23T03:14:16.717Z,16.79
2023-05-23T03:16:43.929Z,16.56
2023-05-23T03:19:11.238Z,16.81
2023-05-23T03:21:39.027Z,16.79
2023-05-23T03:24:06.448Z,16.82
2023-05-23T03:26:33.755Z,16.31
2023-05-23T03:29:00.864Z,17.00
2023-05-23T03:31:28.034Z,16.84
2023-05-23T03:33:55.096Z,16.96
2023-05-23T03:36:26.102Z,16.81
2023-05-23T03:38:53.452Z,16.79
2023-05-23T03:41:21.577Z,16.50
2023-05-23T03:43:48.722Z,16.71
2023-05-23T03:46:16.263Z,16.81
2023-05-23T03:48:44.013Z,16.86
2023-05-23T03:51:13.535Z,16.86
2023-05-23T03:53:41.465Z,16.54
2023-05-23T03:56:08.599Z,16.72
2023-05-23T03:58:35.701Z,16.50
2023-05-23T04:01:09.395Z,16.80
2023-05-23T04:03:36.956Z,16.61
2023-05-23T04:06:04.763Z,16.78
2023-05-23T04:08:34.104Z,16.48
2023-05-23T04:11:02.093Z,16.65
2023-05-23T04:13:33.363Z,16.78
2023-05-23T04:16:02.339Z,16.63
2023-05-23T04:18:30.481Z,16.25
2023-05-23T04:20:59.562Z,16.54
2023-05-23T04:23:26.791Z,16.73
2023-05-23T04:25:54.811Z,16.94
2023-05-23T04:28:27.859Z,17.03
2023-05-23T04:30:56.535Z,16.92
2023-05-23T04:33:28.471Z,16.82
2023-05-23T04:35:56.380Z,16.98
2023-05-23T04:38:25.237Z,16.87
2023-05-23T04:40:54.252Z,16.96
2023-05-23T04:43:43.087Z,17.02
2023-05-23T04:46:27.449Z,17.04
2023-05-23T04:49:15.143Z,17.11
2023-05-23T04:51:43.154Z,17.39
2023-05-23T04:54:20.034Z,17.32
2023-05-23T04:56:47.541Z,17.38
2023-05-23T04:59:18.033Z,17.50
2023-05-23T05:01:45.326Z,17.61
2023-05-23T05:04:14.205Z,17.70
2023-05-23T05:06:42.449Z,17.51
2023-05-23T05:09:10.286Z,17.66
2023-05-23T05:11:37.658Z,17.19
2023-05-23T05:14:04.750Z,17.97
2023-05-23T05:16:32.006Z,17.67
2023-05-23T05:19:00.730Z,18.13
2023-05-23T05:21:27.953Z,18.12
2023-05-23T05:23:55.281Z,18.24
2023-05-23T05:26:23.388Z,18.44
2023-05-23T05:28:51.737Z,18.25
2023-05-23T05:31:19.869Z,18.47
2023-05-23T05:33:47.384Z,18.58
2023-05-23T05:36:16.165Z,18.56
2023-05-23T05:38:44.124Z,18.73
2023-05-23T05:41:11.342Z,18.79
2023-05-23T05:43:47.334Z,18.96
2023-05-23T05:46:14.934Z,19.11
2023-05-23T05:48:42.617Z,19.08
2023-05-23T05:51:12.500Z,19.19
2023-05-23T05:53:43.165Z,19.19
2023-05-23T05:56:10.521Z,19.47
2023-05-23T05:58:39.202Z,19.19
2023-05-23T06:01:08.922Z,19.70
2023-05-23T06:03:36.426Z,19.77
2023-05-23T06:06:03.877Z,19.68
2023-05-23T06:08:31.092Z,19.96
2023-05-23T06:10:58.230Z,19.97
2023-05-23T06:13:26.764Z,19.95
2023-05-23T06:15:54.805Z,19.85
2023-05-23T06:18:23.089Z,20.04
2023-05-23T06:20:51.495Z,19.99
2023-05-23T06:23:20.684Z,20.21
2023-05-23T06:25:48.324Z,20.39
2023-05-23T06:28:15.558Z,20.78
2023-05-23T06:30:42.898Z,20.80
2023-05-23T06:33:10.360Z,20.90
2023-05-23T06:35:37.621Z,20.52
2023-05-23T06:38:04.707Z,21.18
2023-05-23T06:40:31.925Z,21.51
2023-05-23T06:42:59.380Z,21.66
2023-05-23T06:45:49.111Z,21.70
2023-05-23T06:48:16.533Z,21.94
2023-05-23T06:50:45.948Z,22.08
2023-05-23T06:53:15.640Z,22.00
2023-05-23T06:55:43.918Z,22.23
2023-05-23T06:58:14.889Z,22.31
2023-05-23T07:00:42.215Z,22.08
2023-05-23T07:03:18.224Z,22.46
2023-05-23T07:05:45.594Z,22.05
2023-05-23T07:08:13.233Z,22.51
2023-05-23T07:10:47.075Z,22.40
2023-05-23T07:13:26.307Z,22.60
2023-05-23T07:15:53.576Z,22.25
2023-05-23T07:18:20.887Z,22.39
2023-05-23T07:20:48.441Z,22.16
2023-05-23T07:23:17.929Z,22.42
2023-05-23T07:26:01.238Z,22.23
2023-05-23T07:28:39.508Z,22.69
2023-05-23T07:31:09.462Z,22.33
2023-05-23T07:33:37.978Z,22.88
2023-05-23T07:36:06.568Z,22.56
2023-05-23T07:38:33.767Z,22.84
2023-05-23T07:41:10.870Z,22.79
2023-05-23T07:43:39.948Z,22.86
2023-05-23T07:46:07.179Z,22.80
2023-05-23T07:48:34.391Z,22.97
2023-05-23T07:51:01.592Z,22.62
2023-05-23T07:53:29.444Z,22.50
2023-05-23T07:55:57.956Z,22.64
2023-05-23T07:58:28.131Z,23.18
2023-05-23T08:00:55.373Z,23.40
2023-05-23T08:03:42.535Z,23.51
2023-05-23T08:06:15.576Z,22.99
2023-05-23T08:08:43.850Z,23.75
2023-05-23T08:11:10.989Z,23.87
2023-05-23T08:13:44.342Z,23.87
2023-05-23T08:16:30.327Z,23.75
2023-05-23T08:18:57.833Z,23.71
2023-05-23T08:21:25.020Z,23.87
2023-05-23T08:23:52.601Z,23.88
2023-05-23T08:26:20.077Z,24.04
2023-05-23T08:28:48.437Z,23.93
2023-05-23T08:31:15.744Z,24.02
2023-05-23T08:33:44.761Z,24.15
2023-05-23T08:36:12.645Z,23.91
2023-05-23T08:38:40.146Z,24.31
2023-05-23T08:41:27.592Z,24.45
2023-05-23T08:44:01.383Z,24.45
2023-05-23T08:46:35.357Z,24.43
2023-05-23T08:49:02.992Z,24.62
2023-05-23T08:51:33.068Z,24.58
2023-05-23T08:54:06.299Z,24.78
2023-05-23T08:56:35.200Z,24.83
2023-05-23T08:59:03.341Z,24.88
2023-05-23T09:01:32.331Z,24.67
2023-05-23T09:04:05.216Z,24.76
2023-05-23T09:06:51.188Z,24.30
2023-05-23T09:09:18.870Z,24.49
2023-05-23T09:11:47.304Z,24.32
2023-05-23T09:14:15.598Z,24.37
2023-05-23T09:16:47.235Z,24.48
2023-05-23T09:19:16.476Z,24.63
2023-05-23T09:21:50.859Z,24.70
2023-05-23T09:24:34.857Z,24.86
2023-05-23T09:27:03.204Z,24.64
2023-05-23T09:29:30.985Z,24.41
2023-05-23T09:32:10.504Z,24.76
2023-05-23T09:35:03.811Z,25.10
2023-05-23T09:37:31.514Z,25.14
2023-05-23T09:40:06.656Z,25.17
2023-05-23T09:42:34.567Z,24.94
2023-05-23T09:45:04.340Z,25.02
2023-05-23T09:47:32.556Z,25.12
2023-05-23T09:49:59.851Z,25.27
2023-05-23T09:52:27.692Z,25.36
2023-05-23T09:54:55.347Z,25.49
2023-05-23T09:57:23.581Z,25.60
2023-05-23T09:59:54.496Z,25.58
2023-05-23T10:02:54.967Z,25.61
2023-05-23T10:05:40.959Z,25.60
2023-05-23T10:08:12.190Z,25.62
2023-05-23T10:11:14.432Z,25.64
2023-05-23T10:13:49.730Z,25.56
2023-05-23T10:16:40.393Z,25.87
2023-05-23T10:19:17.460Z,25.00
2023-05-23T10:21:59.637Z,25.53
2023-05-23T10:24:27.755Z,25.92
2023-05-23T10:26:58.315Z,25.89
2023-05-23T10:29:25.968Z,26.10
2023-05-23T10:31:54.090Z,26.00
2023-05-23T10:34:35.132Z,26.31
2023-05-23T10:37:07.536Z,26.21
2023-05-23T10:39:47.012Z,26.52
2023-05-23T10:42:24.796Z,26.44
2023-05-23T10:44:51.928Z,26.02
2023-05-23T10:47:31.449Z,25.92
2023-05-23T10:49:58.671Z,26.24
2023-05-23T10:52:29.136Z,26.40
2023-05-23T10:54:56.533Z,26.51
2023-05-23T10:57:29.588Z,26.44
2023-05-23T10:59:57.212Z,26.81
2023-05-23T11:02:28.951Z,26.97
2023-05-23T11:05:22.931Z,27.03
2023-05-23T11:08:09.561Z,27.17
2023-05-23T11:10:55.072Z,27.34
2023-05-23T11:13:23.440Z,27.42
2023-05-23T11:15:50.733Z,27.46
2023-05-23T11:18:28.039Z,27.71
2023-05-23T11:20:55.708Z,27.73
2023-05-23T11:23:24.314Z,27.44
2023-05-23T11:25:53.614Z,27.40
2023-05-23T11:28:21.297Z,27.40
2023-05-23T11:30:49.897Z,27.61
2023-05-23T11:33:18.530Z,27.76
2023-05-23T11:35:46.675Z,27.85
2023-05-23T11:38:18.330Z,27.77
2023-05-23T11:40:47.719Z,27.92
2023-05-23T11:43:19.961Z,27.86
2023-05-23T11:45:47.376Z,27.91
2023-05-23T11:48:16.761Z,27.99
2023-05-23T11:50:52.374Z,28.01
2023-05-23T11:53:22.053Z,27.40
2023-05-23T11:55:57.857Z,27.58
2023-05-23T11:58:34.386Z,27.41
2023-05-23T12:01:09.602Z,27.61
2023-05-23T12:03:54.047Z,27.78
2023-05-23T12:06:23.679Z,27.94
2023-05-23T12:08:52.818Z,27.66
2023-05-23T12:11:20.162Z,27.71
2023-05-23T12:13:47.404Z,28.15
2023-05-23T12:16:17.510Z,28.40
2023-05-23T12:18:44.794Z,28.42
2023-05-23T12:21:12.546Z,28.32
2023-05-23T12:23:40.595Z,28.78
2023-05-23T12:26:08.156Z,28.81
2023-05-23T12:28:41.196Z,28.86
2023-05-23T12:31:21.407Z,28.79
2023-05-23T12:33:52.599Z,28.69
2023-05-23T12:36:26.377Z,28.81
2023-05-23T12:38:53.959Z,28.94
2023-05-23T12:41:22.219Z,28.61
2023-05-23T12:43:53.701Z,28.59
2023-05-23T12:46:22.184Z,28.81
2023-05-23T12:48:49.885Z,28.98
2023-05-23T12:51:17.233Z,29.19
2023-05-23T12:53:44.469Z,28.72
2023-05-23T12:56:11.773Z,28.63
2023-05-23T12:58:38.907Z,28.39
2023-05-23T13:01:06.307Z,28.28
2023-05-23T13:03:33.588Z,28.28
2023-05-23T13:06:00.976Z,27.89
2023-05-23T13:08:28.180Z,27.69
2023-05-23T13:10:55.580Z,28.15
2023-05-23T13:13:23.349Z,28.42
2023-05-23T13:15:51.131Z,28.35
2023-05-23T13:18:18.977Z,28.26
2023-05-23T13:20:46.762Z,28.09
2023-05-23T13:23:14.201Z,27.72
2023-05-23T13:25:41.566Z,27.88
2023-05-23T13:28:08.956Z,27.90
2023-05-23T13:30:36.375Z,27.96
2023-05-23T13:33:03.733Z,28.00
2023-05-23T13:35:30.974Z,28.10
2023-05-23T13:37:58.134Z,27.87
2023-05-23T13:40:25.412Z,28.02
2023-05-23T13:42:52.804Z,27.90
2023-05-23T13:45:22.707Z,28.15
2023-05-23T13:47:50.182Z,28.05
2023-05-23T13:50:17.916Z,28.14
2023-05-23T13:52:49.086Z,28.35
2023-05-23T13:55:18.800Z,28.13
2023-05-23T13:57:46.319Z,28.11
2023-05-23T14:00:14.565Z,28.27
2023-05-23T14:02:41.844Z,28.36
2023-05-23T14:05:09.641Z,28.30
2023-05-23T14:07:37.066Z,28.29
2023-05-23T14:10:05.304Z,28.29
2023-05-23T14:12:32.743Z,28.18
2023-05-23T14:14:59.995Z,28.04
2023-05-23T14:17:27.587Z,28.40
2023-05-23T14:19:54.846Z,28.39
2023-05-23T14:22:22.096Z,28.34
2023-05-23T14:24:49.385Z,27.79
2023-05-23T14:27:16.527Z,28.08
2023-05-23T14:29:46.669Z,27.64
2023-05-23T14:32:14.018Z,28.15
2023-05-23T14:34:41.678Z,28.33
2023-05-23T14:37:08.790Z,28.43
2023-05-23T14:39:36.297Z,28.22
2023-05-23T14:42:03.918Z,27.77
2023-05-23T14:44:31.166Z,27.87
2023-05-23T14:46:58.619Z,28.08
2023-05-23T14:49:25.758Z,28.11
2023-05-23T14:51:52.884Z,28.12
2023-05-23T14:54:20.079Z,28.13
2023-05-23T14:56:47.381Z,28.21
2023-05-23T14:59:15.246Z,28.01
2023-05-23T15:01:42.621Z,28.21
2023-05-23T15:04:10.400Z,28.17
2023-05-23T15:06:39.663Z,28.18
2023-05-23T15:09:07.727Z,28.02
2023-05-23T15:11:39.037Z,28.03
2023-05-23T15:14:06.504Z,28.04
2023-05-23T15:16:35.360Z,27.89
2023-05-23T15:19:02.721Z,28.04
2023-05-23T15:21:29.905Z,28.18
2023-05-23T15:23:57.917Z,28.38
2023-05-23T15:26:25.643Z,28.39
2023-05-23T15:28:52.792Z,27.95
2023-05-23T15:31:20.171Z,28.30
2023-05-23T15:33:50.522Z,27.98
2023-05-23T15:36:17.581Z,28.26
2023-05-23T15:38:44.978Z,28.30
2023-05-23T15:41:12.267Z,28.16
2023-05-23T15:43:39.351Z,28.13
2023-05-23T15:46:06.513Z,27.90
2023-05-23T15:48:33.652Z,28.06
2023-05-23T15:51:01.086Z,27.94
2023-05-23T15:53:29.390Z,27.95
2023-05-23T15:55:57.756Z,27.74
2023-05-23T15:58:24.820Z,27.58
2023-05-23T16:00:52.230Z,27.84
2023-05-23T16:03:19.270Z,27.87
2023-05-23T16:05:46.453Z,27.15
2023-05-23T16:08:13.662Z,27.75
2023-05-23T16:10:40.889Z,26.93
2023-05-23T16:13:09.202Z,27.57
2023-05-23T16:15:36.333Z,27.37
2023-05-23T16:18:04.181Z,27.54
2023-05-23T16:20:31.518Z,27.44
2023-05-23T16:22:58.599Z,27.36
2023-05-23T16:25:25.783Z,26.82
2023-05-23T16:27:52.936Z,27.07
2023-05-23T16:30:20.340Z,27.01
2023-05-23T16:32:47.520Z,26.71
2023-05-23T16:35:14.712Z,26.17
2023-05-23T16:37:41.897Z,26.71
2023-05-23T16:40:09.387Z,26.98
2023-05-23T16:42:37.221Z,27.05
2023-05-23T16:45:05.201Z,27.08
2023-05-23T16:47:32.832Z,26.93
2023-05-23T16:50:00.071Z,26.95
2023-05-23T16:52:27.182Z,26.73
2023-05-23T16:54:55.951Z,26.83
2023-05-23T16:57:23.340Z,26.48
2023-05-23T16:59:50.501Z,26.70
2023-05-23T17:02:17.718Z,26.64
2023-05-23T17:04:45.129Z,26.71
2023-05-23T17:07:12.348Z,26.42
2023-05-23T17:09:39.509Z,26.62
2023-05-23T17:12:07.506Z,26.29
2023-05-23T17:14:34.673Z,26.02
2023-05-23T17:17:03.537Z,26.23
2023-05-23T17:19:30.808Z,26.22
2023-05-23T17:22:01.190Z,26.15
2023-05-23T17:24:28.717Z,26.08
2023-05-23T17:26:55.902Z,25.86
2023-05-23T17:29:23.141Z,25.73
2023-05-23T17:31:50.451Z,25.92
2023-05-23T17:34:18.347Z,25.82
2023-05-23T17:36:45.537Z,25.74
2023-05-23T17:39:12.724Z,25.61
2023-05-23T17:41:39.944Z,25.82
2023-05-23T17:44:07.164Z,25.72
2023-05-23T17:46:34.329Z,25.70
2023-05-23T17:49:01.580Z,25.63
2023-05-23T17:51:47.459Z,25.56
2023-05-23T17:54:14.601Z,25.49
2023-05-23T17:56:43.394Z,25.45
2023-05-23T17:59:10.621Z,25.19
2023-05-23T18:01:37.722Z,25.38
2023-05-23T18:04:04.914Z,25.28
2023-05-23T18:06:32.055Z,25.27
2023-05-23T18:08:59.339Z,25.09
2023-05-23T18:11:27.531Z,25.31
2023-05-23T18:13:54.782Z,25.21
2023-05-23T18:16:22.285Z,25.15
2023-05-23T18:18:49.474Z,24.91
2023-05-23T18:21:18.147Z,25.02
2023-05-23T18:23:45.554Z,24.83
2023-05-23T18:26:12.749Z,24.60
2023-05-23T18:28:40.000Z,24.71
2023-05-23T18:31:07.225Z,24.71
2023-05-23T18:33:34.543Z,24.68
2023-05-23T18:36:02.194Z,24.65
2023-05-23T18:38:29.381Z,24.38
2023-05-23T18:40:56.544Z,24.49
2023-05-23T18:43:23.568Z,24.49
2023-05-23T18:45:50.701Z,24.47
2023-05-23T18:48:17.932Z,24.41
2023-05-23T18:50:45.324Z,23.89
2023-05-23T18:53:12.482Z,24.22
2023-05-23T18:55:39.597Z,23.77
2023-05-23T18:58:06.728Z,24.10
2023-05-23T19:00:33.857Z,24.07
2023-05-23T19:03:01.341Z,23.71
2023-05-23T19:05:29.620Z,23.93
2023-05-23T19:07:56.888Z,23.68
2023-05-23T19:10:24.043Z,23.69
2023-05-23T19:12:51.175Z,23.83
2023-05-23T19:15:19.510Z,23.75
2023-05-23T19:17:47.535Z,23.66
2023-05-23T19:20:18.518Z,23.70
2023-05-23T19:22:51.780Z,23.68
2023-05-23T19:25:19.371Z,23.62
2023-05-23T19:27:46.569Z,23.52
2023-05-23T19:30:13.816Z,23.47
2023-05-23T19:32:40.994Z,23.55
2023-05-23T19:35:08.580Z,23.70
2023-05-23T19:37:35.857Z,23.57
2023-05-23T19:40:03.521Z,22.56
2023-05-23T19:42:30.631Z,22.52
2023-05-23T19:44:57.847Z,22.63
2023-05-23T19:47:25.375Z,22.71
2023-05-23T19:49:52.496Z,22.21
2023-05-23T19:52:19.689Z,22.12
2023-05-23T19:54:46.923Z,21.64
2023-05-23T19:57:14.119Z,21.15
2023-05-23T19:59:42.367Z,21.71
2023-05-23T20:02:10.191Z,21.42
2023-05-23T20:04:37.386Z,21.19
2023-05-23T20:07:04.654Z,20.85
2023-05-23T20:09:32.167Z,21.03
2023-05-23T20:12:00.157Z,21.23
2023-05-23T20:14:29.184Z,21.32
2023-05-23T20:16:56.532Z,21.27
2023-05-23T20:19:23.693Z,20.91
2023-05-23T20:21:50.916Z,20.85
2023-05-23T20:24:18.070Z,20.93
2023-05-23T20:26:45.969Z,20.57
2023-05-23T20:29:13.099Z,20.70
2023-05-23T20:31:40.376Z,20.09
2023-05-23T20:34:07.387Z,19.84
2023-05-23T20:36:34.674Z,19.93
2023-05-23T20:39:01.774Z,20.07
2023-05-23T20:41:29.772Z,19.96
2023-05-23T20:43:56.999Z,20.22
2023-05-23T20:46:26.225Z,19.95
2023-05-23T20:48:53.660Z,19.97
2023-05-23T20:51:22.417Z,19.83
2023-05-23T20:53:51.535Z,20.08
2023-05-23T20:56:18.619Z,20.21
2023-05-23T20:58:46.101Z,20.15
2023-05-23T21:01:15.228Z,20.01
2023-05-23T21:03:42.414Z,20.08
2023-05-23T21:06:09.636Z,20.25
2023-05-23T21:08:36.848Z,20.12
2023-05-23T21:11:03.959Z,20.08
2023-05-23T21:13:31.133Z,20.13
2023-05-23T21:15:58.322Z,20.30
2023-05-23T21:18:25.478Z,20.20
2023-05-23T21:20:52.652Z,20.41
2023-05-23T21:23:19.817Z,19.88
2023-05-23T21:25:46.958Z,20.29
2023-05-23T21:28:14.142Z,20.36
2023-05-23T21:30:41.853Z,20.55
2023-05-23T21:33:09.143Z,20.23
2023-05-23T21:35:37.866Z,20.40
2023-05-23T21:38:04.985Z,20.45
2023-05-23T21:40:32.106Z,20.40
2023-05-23T21:42:59.188Z,20.65
2023-05-23T21:45:26.342Z,20.67
2023-05-23T21:47:53.475Z,20.69
2023-05-23T21:50:20.610Z,20.72
2023-05-23T21:52:47.689Z,20.72
2023-05-23T21:55:14.806Z,20.71
2023-05-23T21:57:41.988Z,20.77
2023-05-23T22:00:13.116Z,20.27
2023-05-23T22:02:40.753Z,20.79
2023-05-23T22:05:08.958Z,20.50
2023-05-23T22:07:36.108Z,20.78
2023-05-23T22:10:03.416Z,20.80
2023-05-23T22:12:30.902Z,20.73
2023-05-23T22:14:58.282Z,20.53
2023-05-23T22:17:26.599Z,19.91
2023-05-23T22:19:55.978Z,19.95
2023-05-23T22:22:23.053Z,19.84
2023-05-23T22:24:50.202Z,19.45
2023-05-23T22:27:17.565Z,19.42
2023-05-23T22:29:44.715Z,19.32
2023-05-23T22:32:11.982Z,18.44
2023-05-23T22:34:39.277Z,19.40
2023-05-23T22:37:06.445Z,19.38
2023-05-23T22:39:33.536Z,19.31
2023-05-23T22:42:00.903Z,18.98
2023-05-23T22:44:28.013Z,18.38
2023-05-23T22:46:56.243Z,18.38
2023-05-23T22:49:25.385Z,17.62
2023-05-23T22:51:52.561Z,18.19
2023-05-23T22:54:19.683Z,18.70
2023-05-23T22:56:46.810Z,18.68
2023-05-23T22:59:13.886Z,18.27
2023-05-23T23:01:41.114Z,18.18
2023-05-23T23:04:08.229Z,18.04
2023-05-23T23:06:35.740Z,18.24
2023-05-23T23:09:02.972Z,18.17
2023-05-23T23:11:30.035Z,17.92
2023-05-23T23:13:57.351Z,18.01
2023-05-23T23:16:24.632Z,17.71
2023-05-23T23:18:52.741Z,17.93
2023-05-23T23:21:20.037Z,18.02
2023-05-23T23:23:47.136Z,17.94
2023-05-23T23:26:14.174Z,17.87
2023-05-23T23:28:41.231Z,18.39
2023-05-23T23:31:08.307Z,18.48
2023-05-23T23:33:35.573Z,18.48
2023-05-23T23:36:02.851Z,18.36
2023-05-23T23:38:29.966Z,18.41
2023-05-23T23:40:57.166Z,18.28
2023-05-23T23:43:24.296Z,18.38
2023-05-23T23:45:51.358Z,18.26
2023-05-23T23:48:18.523Z,18.24
2023-05-23T23:50:45.745Z,18.19
2023-05-23T23:53:12.906Z,18.42
2023-05-23T23:55:40.154Z,18.38
2023-05-23T23:58:07.267Z,18.11
